createdAt,value
2023-05-11T00:00:36.036Z,1.48
2023-05-11T00:02:38.330Z,1.10
2023-05-11T00:04:41.247Z,1.75
2023-05-11T00:06:43.697Z,1.38
2023-05-11T00:08:45.929Z,1.90
2023-05-11T00:10:48.780Z,1.98
2023-05-11T00:12:51.054Z,2.50
2023-05-11T00:14:53.223Z,1.52
2023-05-11T00:16:55.400Z,1.17
2023-05-11T00:18:57.650Z,1.13
2023-05-11T00:21:00.050Z,1.50
2023-05-11T00:23:02.553Z,1.00
2023-05-11T00:25:05.088Z,2.05
2023-05-11T00:27:07.254Z,2.88
2023-05-11T00:29:09.468Z,1.67
2023-05-11T00:31:11.645Z,1.27
2023-05-11T00:33:13.880Z,2.15
2023-05-11T00:35:16.085Z,1.50
2023-05-11T00:37:18.211Z,2.22
2023-05-11T00:39:20.586Z,1.08
2023-05-11T00:41:22.738Z,1.00
2023-05-11T00:43:24.979Z,1.83
2023-05-11T00:45:27.249Z,1.85
2023-05-11T00:47:29.476Z,1.35
2023-05-11T00:49:32.179Z,1.55
2023-05-11T00:51:34.672Z,1.17
2023-05-11T00:53:37.299Z,1.80
2023-05-11T00:55:39.474Z,1.65
2023-05-11T00:57:41.680Z,1.40
2023-05-11T00:59:43.822Z,2.85
2023-05-11T01:01:46.328Z,1.17
2023-05-11T01:03:48.807Z,2.55
2023-05-11T01:06:04.836Z,1.98
2023-05-11T01:08:33.093Z,1.30
2023-05-11T01:10:40.509Z,1.17
2023-05-11T01:12:46.435Z,2.25
2023-05-11T01:15:06.995Z,1.83
2023-05-11T01:17:15.067Z,1.10
2023-05-11T01:19:35.327Z,1.20
2023-05-11T01:21:39.456Z,1.73
2023-05-11T01:24:19.972Z,2.08
2023-05-11T01:26:24.769Z,1.45
2023-05-11T01:28:45.673Z,1.33
2023-05-11T01:30:52.560Z,1.23
2023-05-11T01:32:56.165Z,1.73
2023-05-11T01:35:05.159Z,1.15
2023-05-11T01:37:11.308Z,1.67
2023-05-11T01:39:14.881Z,1.02
2023-05-11T01:41:18.373Z,1.20
2023-05-11T01:43:22.288Z,0.93
2023-05-11T01:45:25.821Z,3.55
2023-05-11T01:47:30.946Z,1.88
2023-05-11T01:49:34.686Z,2.45
2023-05-11T01:51:38.189Z,0.90
2023-05-11T01:53:41.833Z,1.10
2023-05-11T01:55:44.916Z,1.42
2023-05-11T01:57:47.576Z,1.40
2023-05-11T01:59:50.825Z,1.63
2023-05-11T02:01:53.326Z,0.93
2023-05-11T02:03:55.941Z,1.73
2023-05-11T02:05:59.191Z,1.20
2023-05-11T02:08:02.449Z,1.30
2023-05-11T02:10:04.818Z,1.27
2023-05-11T02:12:07.600Z,1.17
2023-05-11T02:14:10.218Z,2.30
2023-05-11T02:16:12.960Z,1.20
2023-05-11T02:20:18.471Z,2.20
2023-05-11T02:22:21.936Z,1.17
2023-05-11T02:24:25.372Z,1.10
2023-05-11T02:26:27.585Z,1.20
2023-05-11T02:28:29.761Z,1.10
2023-05-11T02:30:32.767Z,1.00
2023-05-11T02:32:36.492Z,1.10
2023-05-11T02:34:45.097Z,1.15
2023-05-11T02:36:49.165Z,1.40
2023-05-11T02:38:53.411Z,1.40
2023-05-11T02:40:58.414Z,3.22
2023-05-11T02:43:09.234Z,1.73
2023-05-11T02:45:12.835Z,1.20
2023-05-11T02:47:15.953Z,1.40
2023-05-11T02:49:19.287Z,1.23
2023-05-11T02:51:24.071Z,1.38
2023-05-11T02:53:28.230Z,2.20
2023-05-11T02:55:30.532Z,1.60
2023-05-11T02:57:32.760Z,0.90
2023-05-11T02:59:35.295Z,2.28
2023-05-11T03:01:37.761Z,1.02
2023-05-11T03:03:40.240Z,0.82
2023-05-11T03:05:42.458Z,1.63
2023-05-11T03:07:45.455Z,0.80
2023-05-11T03:09:47.749Z,2.75
2023-05-11T03:11:50.476Z,0.80
2023-05-11T03:15:55.565Z,0.80
2023-05-11T03:17:58.290Z,0.90
2023-05-11T03:20:03.561Z,0.93
2023-05-11T03:22:06.415Z,1.90
2023-05-11T03:26:12.615Z,0.90
2023-05-11T03:28:15.552Z,2.83
2023-05-11T03:30:18.376Z,0.80
2023-05-11T03:32:21.898Z,1.98
2023-05-11T03:34:24.158Z,0.80
2023-05-11T03:36:27.447Z,0.80
2023-05-11T03:38:30.029Z,0.70
2023-05-11T03:40:33.521Z,0.80
2023-05-11T03:42:36.118Z,1.95
2023-05-11T03:44:38.865Z,1.27
2023-05-11T03:48:43.605Z,0.70
2023-05-11T03:50:46.029Z,0.80
2023-05-11T03:52:48.419Z,0.80
2023-05-11T03:54:50.909Z,1.85
2023-05-11T03:56:53.135Z,0.95
2023-05-11T03:58:55.756Z,1.15
2023-05-11T04:00:58.129Z,0.90
2023-05-11T04:03:04.222Z,0.85
2023-05-11T04:05:10.016Z,3.92
2023-05-11T04:07:12.159Z,7.93
2023-05-11T04:09:14.370Z,0.80
2023-05-11T04:11:16.900Z,1.48
2023-05-11T04:13:19.048Z,1.00
2023-05-11T04:15:21.261Z,0.60
2023-05-11T04:17:23.469Z,0.70
2023-05-11T04:19:25.776Z,1.27
2023-05-11T04:21:28.081Z,0.75
2023-05-11T04:23:30.231Z,0.90
2023-05-11T04:25:32.374Z,1.10
2023-05-11T04:27:34.960Z,1.80
2023-05-11T04:29:37.179Z,2.60
2023-05-11T04:31:39.460Z,0.85
2023-05-11T04:33:41.634Z,0.77
2023-05-11T04:35:43.810Z,2.08
2023-05-11T04:37:46.000Z,1.40
2023-05-11T04:39:48.174Z,1.05
2023-05-11T04:41:50.581Z,1.35
2023-05-11T04:43:52.741Z,0.90
2023-05-11T04:45:55.058Z,1.60
2023-05-11T04:47:57.292Z,1.10
2023-05-11T04:49:59.459Z,1.48
2023-05-11T04:52:01.630Z,1.65
2023-05-11T04:54:03.827Z,0.80
2023-05-11T04:56:06.213Z,0.80
2023-05-11T04:58:08.620Z,2.08
2023-05-11T05:00:11.152Z,0.90
2023-05-11T05:02:13.346Z,0.90
2023-05-11T05:04:16.764Z,0.93
2023-05-11T05:06:19.157Z,0.85
2023-05-11T05:08:21.656Z,0.70
2023-05-11T05:10:23.804Z,0.85
2023-05-11T05:12:25.970Z,0.70
2023-05-11T05:14:28.121Z,0.90
2023-05-11T05:16:32.183Z,0.93
2023-05-11T05:18:34.898Z,0.80
2023-05-11T05:20:37.032Z,0.85
2023-05-11T05:22:39.252Z,0.80
2023-05-11T05:24:41.439Z,1.17
2023-05-11T05:26:43.976Z,1.75
2023-05-11T05:28:46.134Z,0.70
2023-05-11T05:30:48.419Z,1.80
2023-05-11T05:32:50.808Z,1.05
2023-05-11T05:34:53.127Z,0.70
2023-05-11T05:36:55.310Z,0.90
2023-05-11T05:38:57.428Z,1.75
2023-05-11T05:41:00.147Z,0.80
2023-05-11T05:45:04.623Z,0.85
2023-05-11T05:47:07.087Z,1.20
2023-05-11T05:49:09.326Z,0.85
2023-05-11T05:51:11.698Z,2.05
2023-05-11T05:53:13.877Z,1.42
2023-05-11T05:55:16.078Z,1.35
2023-05-11T05:57:18.276Z,0.77
2023-05-11T05:59:23.306Z,1.17
2023-05-11T06:01:25.607Z,0.70
2023-05-11T06:03:29.394Z,0.70
2023-05-11T06:05:32.076Z,1.23
2023-05-11T06:07:34.323Z,0.82
2023-05-11T06:09:39.030Z,0.70
2023-05-11T06:11:41.488Z,2.25
2023-05-11T06:13:43.673Z,2.22
2023-05-11T06:15:45.835Z,3.33
2023-05-11T06:17:48.086Z,0.73
2023-05-11T06:19:50.659Z,0.80
2023-05-11T06:21:53.200Z,0.82
2023-05-11T06:23:55.490Z,0.80
2023-05-11T06:25:57.623Z,1.10
2023-05-11T06:27:59.820Z,2.95
2023-05-11T06:30:02.019Z,0.85
2023-05-11T06:32:04.223Z,0.60
2023-05-11T06:34:06.592Z,1.63
2023-05-11T06:36:08.950Z,1.75
2023-05-11T06:38:11.204Z,0.95
2023-05-11T06:40:16.339Z,0.80
2023-05-11T06:42:18.819Z,1.20
2023-05-11T06:44:21.093Z,1.63
2023-05-11T06:46:23.411Z,2.47
2023-05-11T06:48:26.054Z,0.80
2023-05-11T06:50:28.459Z,2.55
2023-05-11T06:52:31.138Z,1.80
2023-05-11T06:54:33.272Z,2.13
2023-05-11T06:56:35.527Z,0.60
2023-05-11T06:58:37.693Z,0.70
2023-05-11T07:00:40.123Z,1.70
2023-05-11T07:02:42.286Z,1.00
2023-05-11T07:04:44.516Z,2.47
2023-05-11T07:06:46.828Z,1.70
2023-05-11T07:08:49.036Z,0.85
2023-05-11T07:10:51.213Z,0.88
2023-05-11T07:12:53.360Z,0.95
2023-05-11T07:14:55.531Z,1.40
2023-05-11T07:16:57.668Z,1.40
2023-05-11T07:18:59.849Z,0.85
2023-05-11T07:21:02.088Z,1.45
2023-05-11T07:23:04.345Z,1.23
2023-05-11T07:25:06.762Z,0.77
2023-05-11T07:27:08.992Z,1.40
2023-05-11T07:29:11.204Z,1.40
2023-05-11T07:31:13.645Z,1.42
2023-05-11T07:33:15.926Z,1.08
2023-05-11T07:35:18.201Z,0.90
2023-05-11T07:37:20.458Z,1.23
2023-05-11T07:39:22.690Z,0.98
2023-05-11T07:41:26.919Z,0.90
2023-05-11T07:43:29.105Z,1.33
2023-05-11T07:45:31.575Z,1.95
2023-05-11T07:47:36.629Z,1.08
2023-05-11T07:49:43.421Z,1.42
2023-05-11T07:51:46.541Z,0.90
2023-05-11T07:53:48.831Z,1.17
2023-05-11T07:55:51.177Z,0.75
2023-05-11T07:57:56.852Z,1.20
2023-05-11T07:59:59.004Z,1.10
2023-05-11T08:02:01.322Z,0.70
2023-05-11T08:04:03.522Z,2.15
2023-05-11T08:06:05.940Z,0.80
2023-05-11T08:10:10.615Z,0.88
2023-05-11T08:12:13.374Z,1.00
2023-05-11T08:16:18.310Z,0.80
2023-05-11T08:18:20.686Z,0.80
2023-05-11T08:20:23.279Z,1.13
2023-05-11T08:22:25.563Z,0.85
2023-05-11T08:24:27.788Z,0.60
2023-05-11T08:26:30.013Z,0.77
2023-05-11T08:28:32.281Z,0.80
2023-05-11T08:30:34.516Z,0.60
2023-05-11T08:32:50.202Z,1.05
2023-05-11T08:34:59.383Z,1.92
2023-05-11T08:37:01.983Z,1.83
2023-05-11T08:39:04.213Z,1.88
2023-05-11T08:41:07.679Z,1.45
2023-05-11T08:43:10.351Z,0.63
2023-05-11T08:45:13.000Z,0.77
2023-05-11T08:49:20.671Z,0.70
2023-05-11T08:51:23.791Z,0.60
2023-05-11T08:53:26.184Z,1.38
2023-05-11T08:55:29.186Z,0.70
2023-05-11T08:57:32.557Z,1.35
2023-05-11T08:59:34.862Z,0.70
2023-05-11T09:01:37.579Z,0.52
2023-05-11T09:05:43.324Z,0.55
2023-05-11T09:07:48.248Z,0.90
2023-05-11T09:09:50.572Z,1.23
2023-05-11T09:11:54.348Z,0.90
2023-05-11T09:13:56.577Z,0.70
2023-05-11T09:15:59.482Z,0.80
2023-05-11T09:18:02.847Z,1.00
2023-05-11T09:20:05.994Z,0.55
2023-05-11T09:22:08.212Z,0.98
2023-05-11T09:24:13.758Z,1.10
2023-05-11T09:26:16.750Z,2.67
2023-05-11T09:28:25.411Z,0.80
2023-05-11T09:30:28.465Z,0.80
2023-05-11T09:32:46.943Z,0.50
2023-05-11T09:34:49.449Z,1.95
2023-05-11T09:36:56.182Z,3.25
2023-05-11T09:39:02.689Z,0.80
2023-05-11T09:41:05.050Z,1.50
2023-05-11T09:43:17.654Z,1.30
2023-05-11T09:45:42.160Z,0.90
2023-05-11T09:47:45.568Z,1.60
2023-05-11T09:49:49.407Z,1.40
2023-05-11T09:52:01.563Z,0.77
2023-05-11T09:54:17.752Z,0.80
2023-05-11T09:56:19.894Z,1.08
2023-05-11T09:58:22.390Z,0.80
2023-05-11T10:00:27.854Z,0.70
2023-05-11T10:02:31.368Z,0.80
2023-05-11T10:04:33.858Z,0.80
2023-05-11T10:06:49.416Z,2.05
2023-05-11T10:08:51.616Z,1.63
2023-05-11T10:10:54.300Z,1.02
2023-05-11T10:15:01.670Z,0.65
2023-05-11T10:17:03.923Z,0.60
2023-05-11T10:19:06.681Z,0.70
2023-05-11T10:23:12.550Z,0.70
2023-05-11T10:25:15.586Z,0.82
2023-05-11T10:27:17.996Z,0.70
2023-05-11T10:29:20.411Z,0.98
2023-05-11T10:31:24.379Z,0.80
2023-05-11T10:33:26.932Z,0.77
2023-05-11T10:35:29.133Z,0.80
2023-05-11T10:37:31.328Z,1.25
2023-05-11T10:39:33.584Z,1.20
2023-05-11T10:41:35.707Z,0.93
2023-05-11T10:43:42.495Z,0.60
2023-05-11T10:46:03.557Z,0.90
2023-05-11T10:48:11.591Z,0.80
2023-05-11T10:50:13.745Z,0.75
2023-05-11T10:52:34.549Z,0.73
2023-05-11T10:54:39.457Z,0.77
2023-05-11T10:56:50.337Z,0.70
2023-05-11T10:59:11.233Z,0.70
2023-05-11T11:01:22.530Z,0.70
2023-05-11T11:03:24.747Z,1.83
2023-05-11T11:05:33.524Z,2.38
2023-05-11T11:07:54.689Z,0.70
2023-05-11T11:10:00.390Z,0.93
2023-05-11T11:12:12.485Z,0.65
2023-05-11T11:14:22.128Z,0.70
2023-05-11T11:16:26.144Z,0.90
2023-05-11T11:18:28.765Z,1.00
2023-05-11T11:21:01.123Z,0.70
2023-05-11T11:23:03.255Z,0.70
2023-05-11T11:25:06.175Z,0.60
2023-05-11T11:27:09.137Z,1.83
2023-05-11T11:29:11.706Z,0.70
2023-05-11T11:31:27.490Z,0.77
2023-05-11T11:33:29.679Z,0.88
2023-05-11T11:35:50.112Z,1.00
2023-05-11T11:38:02.562Z,0.60
2023-05-11T11:40:13.972Z,0.82
2023-05-11T11:44:22.852Z,0.65
2023-05-11T11:46:29.298Z,1.35
2023-05-11T11:48:33.559Z,1.02
2023-05-11T11:50:35.970Z,0.60
2023-05-11T11:52:38.194Z,0.82
2023-05-11T11:54:41.119Z,0.75
2023-05-11T11:56:43.833Z,0.70
2023-05-11T12:00:48.779Z,0.80
2023-05-11T12:02:51.239Z,0.77
2023-05-11T12:05:09.516Z,0.70
2023-05-11T12:07:13.340Z,1.60
2023-05-11T12:09:19.032Z,0.70
2023-05-11T12:11:23.262Z,2.00
2023-05-11T12:13:25.963Z,0.70
2023-05-11T12:17:30.906Z,1.00
2023-05-11T12:19:33.270Z,0.65
2023-05-11T12:21:35.451Z,2.17
2023-05-11T12:23:37.698Z,0.77
2023-05-11T12:25:39.935Z,1.20
2023-05-11T12:27:49.139Z,1.40
2023-05-11T12:29:51.583Z,1.30
2023-05-11T12:31:53.925Z,1.48
2023-05-11T12:33:56.158Z,1.23
2023-05-11T12:35:58.489Z,1.25
2023-05-11T12:38:02.359Z,1.80
2023-05-11T12:40:04.758Z,1.10
2023-05-11T12:42:06.885Z,1.05
2023-05-11T12:44:09.182Z,0.73
2023-05-11T12:46:11.500Z,1.35
2023-05-11T12:48:14.506Z,1.10
2023-05-11T12:50:17.118Z,1.20
2023-05-11T12:52:19.319Z,0.93
2023-05-11T12:54:27.550Z,1.10
2023-05-11T12:56:29.971Z,1.83
2023-05-11T12:58:39.054Z,1.95
2023-05-11T13:00:57.669Z,1.20
2023-05-11T13:03:00.511Z,1.23
2023-05-11T13:05:13.141Z,1.00
2023-05-11T13:07:24.207Z,1.30
2023-05-11T13:09:26.778Z,0.90
2023-05-11T13:11:28.922Z,1.08
2023-05-11T13:13:31.079Z,0.75
2023-05-11T13:15:33.644Z,1.08
2023-05-11T13:17:37.130Z,0.80
2023-05-11T13:19:39.610Z,3.72
2023-05-11T13:21:41.772Z,1.20
2023-05-11T13:23:49.373Z,2.35
2023-05-11T13:25:53.844Z,1.02
2023-05-11T13:27:56.107Z,1.10
2023-05-11T13:29:58.259Z,1.13
2023-05-11T13:32:00.584Z,1.55
2023-05-11T13:34:03.351Z,0.90
2023-05-11T13:38:07.789Z,1.42
2023-05-11T13:40:10.503Z,2.33
2023-05-11T13:44:14.923Z,0.90
2023-05-11T13:46:17.211Z,0.60
2023-05-11T13:48:19.523Z,1.73
2023-05-11T13:50:22.861Z,1.20
2023-05-11T13:52:25.007Z,1.73
2023-05-11T13:54:27.218Z,1.05
2023-05-11T13:56:29.563Z,1.13
2023-05-11T13:58:31.882Z,12.35
2023-05-11T14:00:35.103Z,0.80
2023-05-11T14:02:37.453Z,1.63
2023-05-11T14:04:40.425Z,0.77
2023-05-11T14:06:43.117Z,1.05
2023-05-11T14:08:45.369Z,0.90
2023-05-11T14:10:47.518Z,0.90
2023-05-11T14:12:49.639Z,1.40
2023-05-11T14:14:52.058Z,1.33
2023-05-11T14:16:54.242Z,1.42
2023-05-11T14:18:56.530Z,1.83
2023-05-11T14:20:58.774Z,1.23
2023-05-11T14:23:01.026Z,2.15
2023-05-11T14:25:03.180Z,1.13
2023-05-11T14:27:05.586Z,1.50
2023-05-11T14:29:08.179Z,1.33
2023-05-11T14:31:11.153Z,1.20
2023-05-11T14:33:13.399Z,2.80
2023-05-11T14:35:15.766Z,1.48
2023-05-11T14:37:17.974Z,1.40
2023-05-11T14:39:20.336Z,2.15
2023-05-11T14:41:23.186Z,1.17
2023-05-11T14:43:25.298Z,1.55
2023-05-11T14:45:27.945Z,1.30
2023-05-11T14:47:30.241Z,1.25
2023-05-11T14:49:32.603Z,1.25
2023-05-11T14:51:35.465Z,1.35
2023-05-11T14:53:39.427Z,1.10
2023-05-11T14:55:41.655Z,1.33
2023-05-11T14:57:43.962Z,1.10
2023-05-11T14:59:58.420Z,0.88
2023-05-11T15:02:01.665Z,2.22
2023-05-11T15:04:04.074Z,2.10
2023-05-11T15:06:06.510Z,1.30
2023-05-11T15:08:18.294Z,1.35
2023-05-11T15:10:28.262Z,1.50
2023-05-11T15:12:30.630Z,1.20
2023-05-11T15:14:32.811Z,1.52
2023-05-11T15:16:35.358Z,1.83
2023-05-11T15:18:37.666Z,2.33
2023-05-11T15:20:39.941Z,1.50
2023-05-11T15:22:42.173Z,1.48
2023-05-11T15:24:44.312Z,0.90
2023-05-11T15:26:46.534Z,0.90
2023-05-11T15:28:48.714Z,0.80
2023-05-11T15:30:50.930Z,0.80
2023-05-11T15:32:53.191Z,2.30
2023-05-11T15:34:59.946Z,3.13
2023-05-11T15:37:02.373Z,4.65
2023-05-11T15:39:04.643Z,3.53
2023-05-11T15:41:07.675Z,3.47
2023-05-11T15:43:09.975Z,1.50
2023-05-11T15:45:12.439Z,1.83
2023-05-11T15:47:14.659Z,1.60
2023-05-11T15:49:16.990Z,2.60
2023-05-11T15:51:19.637Z,1.95
2023-05-11T15:53:21.802Z,1.05
2023-05-11T15:55:25.507Z,3.53
2023-05-11T15:57:27.714Z,13.55
2023-05-11T15:59:32.857Z,3.35
2023-05-11T16:01:35.224Z,2.90
2023-05-11T16:03:37.470Z,4.20
2023-05-11T16:05:40.041Z,4.22
2023-05-11T16:07:42.269Z,2.95
2023-05-11T16:09:44.715Z,3.30
2023-05-11T16:11:46.892Z,4.00
2023-05-11T16:13:49.198Z,3.20
2023-05-11T16:15:52.337Z,2.33
2023-05-11T16:17:54.549Z,1.63
2023-05-11T16:19:58.565Z,1.48
2023-05-11T16:22:00.746Z,1.52
2023-05-11T16:24:03.019Z,1.35
2023-05-11T16:26:05.239Z,1.92
2023-05-11T16:28:07.555Z,1.25
2023-05-11T16:30:22.378Z,1.70
2023-05-11T16:32:27.097Z,1.73
2023-05-11T16:34:29.306Z,1.42
2023-05-11T16:36:31.520Z,2.00
2023-05-11T16:38:33.888Z,1.20
2023-05-11T16:40:36.062Z,1.23
2023-05-11T16:42:38.297Z,2.25
2023-05-11T16:44:40.572Z,1.10
2023-05-11T16:46:42.788Z,1.30
2023-05-11T16:48:45.399Z,0.90
2023-05-11T16:50:47.770Z,1.30
2023-05-11T16:52:49.893Z,1.17
2023-05-11T16:54:52.152Z,1.73
2023-05-11T16:56:54.527Z,1.17
2023-05-11T16:58:57.398Z,1.00
2023-05-11T17:00:59.930Z,1.00
2023-05-11T17:03:02.191Z,1.98
2023-05-11T17:05:05.533Z,1.38
2023-05-11T17:07:10.840Z,1.50
2023-05-11T17:09:13.051Z,1.50
2023-05-11T17:11:15.260Z,2.20
2023-05-11T17:13:18.150Z,2.38
2023-05-11T17:15:20.620Z,2.10
2023-05-11T17:17:22.794Z,1.60
2023-05-11T17:19:24.970Z,1.50
2023-05-11T17:21:27.203Z,1.10
2023-05-11T17:23:29.328Z,1.52
2023-05-11T17:25:31.819Z,3.03
2023-05-11T17:27:35.416Z,2.10
2023-05-11T17:29:37.532Z,2.75
2023-05-11T17:31:40.164Z,2.72
2023-05-11T17:35:44.748Z,1.30
2023-05-11T17:37:46.895Z,1.17
2023-05-11T17:39:49.061Z,1.23
2023-05-11T17:41:51.414Z,1.38
2023-05-11T17:43:53.565Z,1.23
2023-05-11T17:45:55.941Z,1.75
2023-05-11T17:47:58.215Z,1.30
2023-05-11T17:50:00.393Z,2.08
2023-05-11T17:52:02.857Z,1.40
2023-05-11T17:54:05.122Z,1.50
2023-05-11T17:56:09.990Z,2.22
2023-05-11T17:58:12.164Z,3.00
2023-05-11T18:00:14.540Z,2.92
2023-05-11T18:02:17.284Z,2.60
2023-05-11T18:06:21.547Z,2.30
2023-05-11T18:08:23.724Z,2.40
2023-05-11T18:10:26.030Z,2.33
2023-05-11T18:12:30.265Z,5.45
2023-05-11T18:14:32.907Z,2.45
2023-05-11T18:16:35.724Z,2.30
2023-05-11T18:18:38.420Z,2.20
2023-05-11T18:22:42.815Z,1.80
2023-05-11T18:24:44.967Z,4.05
2023-05-11T18:26:47.205Z,1.75
2023-05-11T18:28:49.578Z,2.40
2023-05-11T18:30:51.861Z,2.05
2023-05-11T18:32:54.082Z,1.88
2023-05-11T18:34:56.224Z,1.77
2023-05-11T18:36:58.359Z,1.83
2023-05-11T18:39:00.560Z,2.72
2023-05-11T18:41:06.017Z,2.53
2023-05-11T18:43:08.641Z,3.08
2023-05-11T18:45:11.160Z,2.42
2023-05-11T18:47:13.426Z,2.70
2023-05-11T18:49:15.608Z,2.58
2023-05-11T18:51:20.084Z,3.40
2023-05-11T18:53:22.507Z,5.00
2023-05-11T18:55:24.954Z,4.40
2023-05-11T18:57:27.086Z,4.90
2023-05-11T18:59:29.241Z,3.55
2023-05-11T19:01:46.553Z,3.03
2023-05-11T19:03:50.050Z,4.35
2023-05-11T19:05:52.489Z,2.80
2023-05-11T19:07:54.679Z,3.42
2023-05-11T19:09:57.803Z,3.40
2023-05-11T19:12:00.007Z,3.40
2023-05-11T19:14:02.624Z,3.25
2023-05-11T19:16:05.025Z,2.65
2023-05-11T19:18:07.967Z,2.58
2023-05-11T19:20:11.751Z,3.05
2023-05-11T19:22:14.735Z,3.50
2023-05-11T19:24:16.880Z,3.42
2023-05-11T19:26:19.074Z,3.95
2023-05-11T19:28:21.283Z,6.57
2023-05-11T19:30:24.673Z,3.83
2023-05-11T19:32:27.777Z,4.07
2023-05-11T19:34:30.095Z,4.07
2023-05-11T19:36:32.240Z,4.72
2023-05-11T19:38:35.888Z,3.92
2023-05-11T19:40:45.769Z,3.88
2023-05-11T19:42:48.621Z,3.85
2023-05-11T19:44:52.329Z,4.03
2023-05-11T19:46:54.665Z,4.13
2023-05-11T19:48:57.703Z,4.90
2023-05-11T19:51:00.030Z,4.60
2023-05-11T19:53:02.187Z,4.45
2023-05-11T19:55:04.929Z,5.95
2023-05-11T19:59:09.314Z,5.70
2023-05-11T20:01:11.617Z,4.35
2023-05-11T20:03:13.939Z,4.93
2023-05-11T20:05:16.246Z,3.92
2023-05-11T20:07:20.163Z,3.47
2023-05-11T20:09:23.195Z,2.95
2023-05-11T20:11:26.178Z,5.40
2023-05-11T20:13:28.371Z,3.70
2023-05-11T20:15:31.416Z,3.50
2023-05-11T20:17:34.831Z,3.63
2023-05-11T20:19:37.810Z,3.55
2023-05-11T20:21:40.243Z,3.20
2023-05-11T20:23:42.522Z,3.05
2023-05-11T20:25:45.332Z,3.15
2023-05-11T20:27:47.584Z,2.83
2023-05-11T20:29:49.765Z,4.07
2023-05-11T20:31:52.054Z,3.72
2023-05-11T20:35:59.523Z,4.00
2023-05-11T20:38:02.015Z,3.60
2023-05-11T20:40:06.613Z,4.70
2023-05-11T20:42:08.929Z,7.10
2023-05-11T20:44:13.809Z,4.85
2023-05-11T20:46:16.083Z,4.75
2023-05-11T20:48:25.951Z,6.80
2023-05-11T20:50:39.764Z,4.65
2023-05-11T20:52:42.149Z,7.75
2023-05-11T20:54:44.683Z,6.25
2023-05-11T20:56:46.890Z,4.55
2023-05-11T20:58:49.040Z,5.30
2023-05-11T21:00:51.649Z,5.65
2023-05-11T21:02:54.019Z,5.35
2023-05-11T21:05:01.820Z,8.10
2023-05-11T21:07:04.306Z,4.60
2023-05-11T21:09:06.494Z,3.92
2023-05-11T21:11:08.982Z,3.10
2023-05-11T21:13:13.170Z,3.58
2023-05-11T21:15:15.417Z,4.40
2023-05-11T21:17:17.600Z,3.38
2023-05-11T21:19:19.753Z,4.00
2023-05-11T21:21:21.993Z,3.58
2023-05-11T21:23:24.189Z,3.85
2023-05-11T21:25:26.295Z,5.78
2023-05-11T21:27:28.538Z,5.18
2023-05-11T21:29:30.725Z,4.13
2023-05-11T21:31:33.058Z,6.75
2023-05-11T21:33:35.986Z,4.70
2023-05-11T21:35:38.184Z,5.53
2023-05-11T21:37:40.531Z,8.02
2023-05-11T21:39:42.803Z,5.55
2023-05-11T21:41:44.930Z,6.10
2023-05-11T21:43:47.091Z,9.18
2023-05-11T21:45:49.989Z,8.82
2023-05-11T21:47:52.387Z,7.22
2023-05-11T21:49:54.584Z,6.80
2023-05-11T21:51:57.097Z,6.97
2023-05-11T21:53:59.561Z,8.50
2023-05-11T21:56:01.789Z,9.50
2023-05-11T21:58:04.033Z,7.60
2023-05-11T22:00:08.660Z,10.07
2023-05-11T22:02:10.870Z,7.00
2023-05-11T22:04:13.361Z,8.52
2023-05-11T22:06:15.861Z,8.82
2023-05-11T22:08:18.010Z,9.25
2023-05-11T22:10:20.288Z,8.60
2023-05-11T22:12:22.651Z,8.35
2023-05-11T22:14:24.863Z,8.85
2023-05-11T22:16:27.185Z,7.10
2023-05-11T22:18:29.434Z,8.85
2023-05-11T22:20:31.917Z,11.10
2023-05-11T22:22:34.664Z,7.85
2023-05-11T22:26:39.127Z,8.32
2023-05-11T22:28:41.320Z,9.25
2023-05-11T22:30:43.539Z,8.15
2023-05-11T22:32:45.715Z,9.77
2023-05-11T22:34:48.325Z,10.68
2023-05-11T22:36:50.512Z,7.97
2023-05-11T22:38:53.125Z,9.18
2023-05-11T22:40:55.295Z,9.30
2023-05-11T22:42:58.028Z,9.82
2023-05-11T22:47:02.432Z,9.40
2023-05-11T22:49:04.650Z,7.00
2023-05-11T22:51:06.937Z,7.57
2023-05-11T22:53:09.091Z,5.82
2023-05-11T22:55:11.301Z,4.63
2023-05-11T22:57:16.072Z,5.13
2023-05-11T22:59:18.300Z,4.25
2023-05-11T23:01:21.009Z,4.57
2023-05-11T23:05:25.803Z,4.40
2023-05-11T23:07:28.018Z,4.05
2023-05-11T23:09:30.299Z,4.40
2023-05-11T23:11:32.587Z,4.35
2023-05-11T23:13:35.056Z,3.97
2023-05-11T23:15:37.269Z,4.20
2023-05-11T23:17:39.597Z,5.05
2023-05-11T23:19:42.393Z,3.70
2023-05-11T23:23:46.880Z,4.75
2023-05-11T23:25:49.048Z,5.15
2023-05-11T23:27:52.611Z,5.13
2023-05-11T23:29:54.983Z,4.50
2023-05-11T23:31:57.197Z,5.05
2023-05-11T23:33:59.609Z,5.80
2023-05-11T23:36:02.242Z,4.68
2023-05-11T23:38:04.512Z,4.47
2023-05-11T23:40:08.474Z,6.47
2023-05-11T23:42:10.707Z,4.35
2023-05-11T23:44:12.877Z,4.57
2023-05-11T23:46:15.220Z,4.22
2023-05-11T23:48:17.421Z,4.82
2023-05-11T23:50:20.110Z,4.47
2023-05-11T23:52:22.524Z,4.60
2023-05-11T23:54:24.729Z,5.22
2023-05-11T23:56:27.027Z,4.82
2023-05-11T23:58:29.222Z,4.28
